Time;durP1;ratioP1;P1;durP2;ratioP2;P2;SDS_P1;SDS_P2;PMS_P1;PMS_P2;Temp;Humidity;BMP_temperature;BMP_pressure;BME280_temperature;BME280_humidity;BME280_pressure;Samples;Min_cycle;Max_cycle;Signal;HPM_P1;HPM_P2
2024/02/06 00:01:24;;;;;;;7.77;5.83;;;9.60;99.90;;;;;;5134290;27;20168;-72
2024/02/06 00:03:50;;;;;;;6.47;5.10;;;9.60;99.90;;;;;;5132344;27;20246;-72
2024/02/06 00:06:16;;;;;;;7.40;5.70;;;9.60;78.90;;;;;;5134174;27;20263;-71
2024/02/06 00:08:41;;;;;;;10.67;5.50;;;9.60;99.90;;;;;;5134491;27;20251;-70
2024/02/06 00:11:07;;;;;;;6.63;5.60;;;9.60;1.00;;;;;;5134431;27;20180;-70
2024/02/06 00:16:01;;;;;;;7.47;5.83;;;9.70;1.00;;;;;;5071429;28;20285;-70
2024/02/06 00:18:27;;;;;;;10.00;6.50;;;9.70;99.90;;;;;;5089092;28;20701;-70
2024/02/06 00:20:52;;;;;;;8.17;6.47;;;9.70;99.90;;;;;;5092973;28;20256;-70
2024/02/06 00:23:18;;;;;;;9.83;5.20;;;9.70;1.00;;;;;;5092978;28;20290;-70
2024/02/06 00:25:43;;;;;;;9.27;5.87;;;9.60;1.00;;;;;;5093160;28;20176;-72
2024/02/06 00:28:09;;;;;;;9.13;5.73;;;9.70;1.00;;;;;;5092962;28;20263;-69
2024/02/06 00:30:35;;;;;;;7.53;5.70;;;9.70;99.90;;;;;;5092314;28;20214;-69
2024/02/06 00:33:00;;;;;;;7.07;5.83;;;9.70;1.00;;;;;;5072730;28;20181;-69
2024/02/06 00:35:26;;;;;;;9.13;5.90;;;9.70;1.00;;;;;;5072662;28;20272;-70
2024/02/06 00:37:53;;;;;;;12.10;6.00;;;9.70;99.90;;;;;;5072635;28;20173;-69
2024/02/06 00:40:19;;;;;;;8.23;6.13;;;9.70;99.90;;;;;;5072489;28;20651;-69
2024/02/06 00:42:45;;;;;;;12.87;7.00;;;9.70;55.20;;;;;;5072994;28;20198;-70
2024/02/06 00:45:11;;;;;;;7.80;5.30;;;9.70;99.90;;;;;;5072457;28;20193;-70
2024/02/06 00:47:36;;;;;;;8.40;5.80;;;9.70;99.90;;;;;;5073633;28;20193;-70
2024/02/06 00:50:02;;;;;;;8.13;5.30;;;9.70;1.00;;;;;;5071857;28;20163;-72
2024/02/06 00:52:28;;;;;;;11.20;5.53;;;9.80;99.90;;;;;;5072142;28;20174;-70
2024/02/06 00:54:55;;;;;;;11.27;6.27;;;9.80;1.00;;;;;;5072057;28;20189;-70
2024/02/06 00:57:21;;;;;;;7.07;5.40;;;9.80;1.00;;;;;;5071890;28;20228;-70
2024/02/06 00:59:47;;;;;;;9.40;5.53;;;9.80;99.90;;;;;;5074137;28;20175;-70
2024/02/06 01:02:12;;;;;;;8.37;5.20;;;9.90;87.20;;;;;;5091729;28;20207;-71
2024/02/06 01:04:38;;;;;;;9.37;5.43;;;9.90;1.00;;;;;;5091931;28;20182;-70
2024/02/06 01:07:04;;;;;;;8.53;5.47;;;9.90;1.00;;;;;;5091954;28;20176;-70
2024/02/06 01:09:29;;;;;;;7.77;5.63;;;9.90;1.00;;;;;;5077377;28;20244;-70
2024/02/06 01:11:55;;;;;;;7.67;5.50;;;9.90;97.50;;;;;;5079841;28;20823;-70
2024/02/06 01:14:20;;;;;;;7.97;6.17;;;10.00;1.00;;;;;;5098183;28;20227;-70
2024/02/06 01:16:46;;;;;;;5.80;5.30;;;10.00;99.90;;;;;;5110800;28;20229;-70
2024/02/06 01:19:12;;;;;;;5.90;5.30;;;10.00;1.00;;;;;;5112031;28;20629;-70
2024/02/06 01:21:37;;;;;;;5.87;5.23;;;10.00;1.00;;;;;;5111984;28;20181;-70
2024/02/06 01:24:03;;;;;;;9.23;5.20;;;10.00;1.00;;;;;;5112230;28;20192;-69
2024/02/06 01:26:29;;;;;;;6.30;5.53;;;10.00;1.00;;;;;;5112118;28;20530;-70
2024/02/06 01:28:54;;;;;;;9.33;5.47;;;10.00;1.00;;;;;;5112089;28;20168;-70
2024/02/06 01:31:20;;;;;;;5.53;5.03;;;10.00;1.00;;;;;;5109962;28;20546;-69
2024/02/06 01:33:45;;;;;;;6.37;5.27;;;10.00;1.00;;;;;;5100424;28;20197;-69
2024/02/06 01:36:11;;;;;;;11.50;5.53;;;10.00;1.00;;;;;;5112216;28;20245;-70
2024/02/06 01:38:37;;;;;;;12.67;6.13;;;10.00;1.00;;;;;;5112716;28;20325;-70
2024/02/06 01:41:03;;;;;;;6.70;5.53;;;10.00;1.00;;;;;;5112331;28;20630;-70
2024/02/06 01:43:28;;;;;;;6.63;5.07;;;9.90;1.00;;;;;;5093867;28;20200;-70
2024/02/06 01:45:55;;;;;;;6.77;5.10;;;9.90;1.00;;;;;;5103980;28;20294;-70
2024/02/06 01:48:21;;;;;;;6.00;5.40;;;9.90;1.00;;;;;;5091492;28;20178;-70
2024/02/06 01:50:48;;;;;;;6.30;5.03;;;9.90;1.00;;;;;;5073085;28;20547;-70
2024/02/06 01:53:14;;;;;;;7.33;5.73;;;9.80;1.00;;;;;;5091309;28;20209;-70
2024/02/06 01:55:41;;;;;;;7.60;5.03;;;9.80;1.00;;;;;;5091580;28;20230;-71
2024/02/06 01:58:07;;;;;;;7.40;5.03;;;9.80;1.00;;;;;;5091552;28;20170;-71
2024/02/06 02:00:34;;;;;;;7.07;5.70;;;9.80;1.00;;;;;;5097661;28;20180;-70
2024/02/06 02:03:01;;;;;;;6.80;6.20;;;9.80;1.00;;;;;;5110345;28;20572;-71
2024/02/06 02:05:27;;;;;;;8.73;5.20;;;9.80;1.00;;;;;;5109626;28;20169;-70
2024/02/06 02:07:53;;;;;;;6.07;5.20;;;9.80;1.00;;;;;;5101567;28;20180;-70
2024/02/06 02:10:18;;;;;;;8.77;5.90;;;9.70;1.00;;;;;;5090642;28;20162;-71
2024/02/06 02:12:44;;;;;;;5.90;5.30;;;9.70;1.00;;;;;;5091355;28;20177;-70
2024/02/06 02:15:13;;;;;;;9.53;5.67;;;9.70;1.00;;;;;;5108593;28;20219;-70
2024/02/06 02:17:39;;;;;;;8.73;4.97;;;9.70;1.00;;;;;;5111480;28;20256;-70
2024/02/06 02:20:06;;;;;;;8.10;5.47;;;9.70;1.00;;;;;;5110900;28;20226;-70
2024/02/06 02:22:32;;;;;;;8.00;5.93;;;9.70;1.00;;;;;;5111153;28;20192;-71
2024/02/06 02:24:58;;;;;;;7.37;5.00;;;9.80;99.90;;;;;;5111081;28;20185;-70
2024/02/06 02:27:24;;;;;;;7.63;4.83;;;9.80;1.00;;;;;;5108363;28;20188;-70
2024/02/06 02:29:51;;;;;;;6.17;5.17;;;9.80;1.00;;;;;;5090797;28;20161;-70
2024/02/06 02:32:18;;;;;;;7.07;5.20;;;9.80;1.00;;;;;;5090682;28;20169;-70
2024/02/06 02:34:50;;;;;;;10.03;5.90;;;9.80;1.00;;;;;;5090762;28;20200;-70
2024/02/06 02:37:15;;;;;;;9.23;5.63;;;9.80;1.00;;;;;;5090740;28;20166;-70
2024/02/06 02:39:41;;;;;;;7.37;5.17;;;9.80;1.00;;;;;;5090489;28;20169;-71
2024/02/06 02:42:07;;;;;;;8.57;5.63;;;9.80;1.00;;;;;;5091642;28;20204;-69
2024/02/06 02:44:32;;;;;;;9.50;5.63;;;9.80;1.00;;;;;;5091629;28;20198;-69
2024/02/06 02:46:58;;;;;;;6.33;4.97;;;9.80;99.90;;;;;;5072508;28;20181;-69
2024/02/06 02:49:23;;;;;;;6.77;4.73;;;9.80;99.90;;;;;;5092865;28;20274;-70
2024/02/06 02:51:53;;;;;;;6.70;4.80;;;9.80;99.90;;;;;;5111075;28;20180;-70
2024/02/06 02:54:19;;;;;;;7.37;4.77;;;9.80;99.90;;;;;;5110662;28;20289;-69
2024/02/06 02:56:45;;;;;;;10.87;4.93;;;9.80;99.90;;;;;;5110958;28;20192;-70
2024/02/06 02:59:11;;;;;;;6.57;5.00;;;9.90;99.90;;;;;;5111155;28;20204;-69
2024/02/06 03:01:36;;;;;;;11.00;4.97;;;9.90;99.90;;;;;;5108934;28;20187;-69
2024/02/06 03:04:02;;;;;;;9.13;4.70;;;9.90;99.90;;;;;;5110417;28;20665;-69
2024/02/06 03:06:28;;;;;;;6.97;5.57;;;9.90;1.00;;;;;;5110932;28;20256;-69
2024/02/06 03:08:54;;;;;;;13.53;5.83;;;9.90;99.90;;;;;;5110473;28;20350;-69
2024/02/06 03:11:20;;;;;;;11.33;6.03;;;9.90;99.90;;;;;;5090027;28;20181;-69
2024/02/06 03:13:46;;;;;;;10.13;6.10;;;9.90;99.90;;;;;;5091425;28;20197;-69
2024/02/06 03:16:12;;;;;;;10.40;7.70;;;9.90;99.90;;;;;;5094045;28;20166;-69
2024/02/06 03:18:38;;;;;;;9.87;5.30;;;10.00;99.90;;;;;;5095266;28;20177;-69
2024/02/06 03:21:04;;;;;;;7.40;4.40;;;10.00;99.90;;;;;;5075678;28;20169;-69
2024/02/06 03:23:30;;;;;;;8.17;5.73;;;10.10;99.90;;;;;;5094086;28;20201;-70
2024/02/06 03:25:56;;;;;;;5.73;5.07;;;10.10;99.90;;;;;;5094075;28;20181;-69
2024/02/06 03:28:22;;;;;;;9.27;4.93;;;10.10;1.00;;;;;;5087875;28;20196;-70
2024/02/06 03:30:47;;;;;;;7.50;5.33;;;10.10;99.90;;;;;;5087814;28;20178;-70
2024/02/06 03:33:13;;;;;;;7.40;5.10;;;10.10;99.90;;;;;;5093724;28;20173;-70
2024/02/06 03:35:39;;;;;;;6.40;4.30;;;10.20;1.00;;;;;;5093763;28;20180;-70
2024/02/06 03:38:05;;;;;;;6.63;4.30;;;10.10;1.00;;;;;;5093698;28;20180;-70
2024/02/06 03:40:32;;;;;;;6.67;4.63;;;10.10;1.00;;;;;;5093382;28;20178;-70
2024/02/06 03:42:58;;;;;;;7.10;5.10;;;10.20;1.00;;;;;;5110999;28;20205;-70
2024/02/06 03:45:24;;;;;;;8.30;4.63;;;10.20;1.00;;;;;;5095806;28;20533;-71
2024/02/06 03:47:50;;;;;;;8.40;5.17;;;10.20;1.00;;;;;;5094076;28;20201;-70
2024/02/06 03:50:15;;;;;;;11.47;5.33;;;10.20;99.90;;;;;;5092909;28;20201;-70
2024/02/06 03:52:41;;;;;;;6.53;5.10;;;10.20;1.00;;;;;;5093446;28;20246;-70
2024/02/06 03:55:07;;;;;;;7.07;5.07;;;10.20;1.00;;;;;;5097825;28;20620;-70
2024/02/06 03:57:33;;;;;;;8.80;4.90;;;10.20;1.00;;;;;;5112012;28;20264;-70
2024/02/06 03:59:58;;;;;;;6.47;4.67;;;10.20;1.00;;;;;;5113496;28;20173;-71
2024/02/06 04:02:24;;;;;;;8.90;4.93;;;10.30;99.90;;;;;;5113059;28;20200;-70
2024/02/06 04:04:50;;;;;;;8.53;5.07;;;10.30;19.60;;;;;;5113660;28;20264;-70
2024/02/06 04:07:17;;;;;;;9.07;5.33;;;10.20;1.00;;;;;;5106524;28;20238;-71
2024/02/06 04:09:43;;;;;;;9.47;4.53;;;10.20;54.00;;;;;;5103684;28;20173;-71
2024/02/06 04:12:08;;;;;;;9.00;5.40;;;10.20;99.90;;;;;;5101833;28;20183;-70
2024/02/06 04:14:35;;;;;;;7.47;5.07;;;10.20;1.00;;;;;;5093918;28;20570;-70
2024/02/06 04:17:01;;;;;;;13.20;4.93;;;10.20;99.90;;;;;;5093069;28;20176;-71
2024/02/06 04:19:27;;;;;;;7.17;5.63;;;10.20;1.00;;;;;;5092731;28;20277;-71
2024/02/06 04:21:52;;;;;;;8.40;5.57;;;10.20;1.00;;;;;;5092937;28;20547;-71
2024/02/06 04:24:18;;;;;;;12.13;5.70;;;10.20;1.00;;;;;;5092738;28;20582;-70
2024/02/06 04:26:45;;;;;;;8.77;4.90;;;10.20;1.00;;;;;;5092053;28;20177;-70
2024/02/06 04:29:11;;;;;;;8.30;5.27;;;10.20;67.50;;;;;;5112942;28;20161;-71
2024/02/06 04:31:37;;;;;;;8.67;4.90;;;10.20;1.00;;;;;;5079011;28;20393;-70
2024/02/06 04:34:02;;;;;;;9.57;5.10;;;10.20;1.00;;;;;;5092607;28;20666;-69
2024/02/06 04:36:28;;;;;;;9.97;5.37;;;10.20;9.40;;;;;;5092430;28;20169;-69
2024/02/06 04:38:53;;;;;;;6.73;5.60;;;10.20;1.00;;;;;;5092517;28;20165;-70
2024/02/06 04:41:19;;;;;;;9.10;5.40;;;10.20;1.00;;;;;;5092202;28;20162;-70
2024/02/06 04:43:45;;;;;;;11.90;5.93;;;10.10;1.00;;;;;;5092415;28;20693;-70
2024/02/06 04:46:10;;;;;;;9.77;5.30;;;10.10;1.00;;;;;;5093529;28;20173;-69
2024/02/06 04:48:36;;;;;;;5.03;4.53;;;10.10;1.00;;;;;;5092266;28;20599;-70
2024/02/06 04:51:01;;;;;;;8.43;4.80;;;10.10;90.10;;;;;;5092248;28;20169;-70
2024/02/06 04:53:28;;;;;;;7.40;4.80;;;10.10;1.00;;;;;;5092119;28;20688;-70
2024/02/06 04:55:53;;;;;;;6.03;5.20;;;10.10;1.00;;;;;;5092329;28;20197;-69
2024/02/06 04:58:20;;;;;;;6.63;5.80;;;10.10;1.00;;;;;;5092040;28;20197;-70
2024/02/06 05:00:45;;;;;;;9.33;5.13;;;10.00;19.20;;;;;;5109257;28;20215;-70
2024/02/06 05:03:11;;;;;;;8.77;6.13;;;10.00;99.90;;;;;;5077639;28;20220;-72
2024/02/06 05:05:37;;;;;;;6.97;6.27;;;10.10;1.00;;;;;;5112348;28;20173;-70
2024/02/06 05:08:02;;;;;;;9.27;5.10;;;10.00;1.00;;;;;;5112545;28;20164;-69
2024/02/06 05:10:28;;;;;;;8.67;5.57;;;10.00;1.00;;;;;;5111735;28;20203;-70
2024/02/06 05:12:54;;;;;;;8.13;5.40;;;10.00;1.00;;;;;;5112445;28;20217;-70
2024/02/06 05:15:20;;;;;;;7.63;5.97;;;10.00;43.90;;;;;;5110276;28;20200;-71
2024/02/06 05:17:46;;;;;;;11.03;6.27;;;10.00;1.00;;;;;;5112874;28;20435;-70
2024/02/06 05:20:12;;;;;;;11.50;6.00;;;10.10;99.90;;;;;;5111902;28;20617;-70
2024/02/06 05:22:38;;;;;;;9.17;6.20;;;10.10;1.00;;;;;;5111911;28;20203;-70
2024/02/06 05:25:05;;;;;;;8.30;5.70;;;10.10;43.40;;;;;;5110437;28;20193;-71
2024/02/06 05:27:31;;;;;;;9.00;6.13;;;10.10;1.00;;;;;;5111874;28;20165;-70
2024/02/06 05:29:56;;;;;;;8.10;5.67;;;10.10;1.00;;;;;;5111627;28;20169;-70
2024/02/06 05:32:22;;;;;;;8.80;5.50;;;10.10;99.90;;;;;;5108484;28;20180;-71
2024/02/06 05:34:50;;;;;;;7.70;5.93;;;10.10;99.90;;;;;;5091546;28;20276;-71
2024/02/06 05:37:16;;;;;;;7.20;5.80;;;10.10;99.90;;;;;;5091082;28;20169;-69
2024/02/06 05:39:44;;;;;;;10.30;6.20;;;10.10;99.90;;;;;;5072867;28;20176;-70
2024/02/06 05:42:10;;;;;;;9.63;6.23;;;10.10;99.90;;;;;;5091338;28;20669;-70
2024/02/06 05:44:35;;;;;;;8.60;5.77;;;10.10;99.90;;;;;;5093316;28;20271;-70
2024/02/06 05:47:01;;;;;;;9.13;5.17;;;10.10;99.90;;;;;;5111717;28;20244;-70
2024/02/06 05:49:27;;;;;;;7.77;5.87;;;10.10;99.90;;;;;;5109629;28;20259;-70
2024/02/06 05:51:52;;;;;;;8.97;6.70;;;10.10;99.90;;;;;;5093166;28;20698;-70
2024/02/06 05:54:18;;;;;;;6.80;5.80;;;10.10;99.90;;;;;;5111311;28;20355;-71
2024/02/06 05:56:43;;;;;;;6.17;5.50;;;10.10;99.90;;;;;;5111421;28;20203;-70
2024/02/06 05:59:09;;;;;;;13.87;5.30;;;10.10;99.90;;;;;;5111579;28;20559;-70
2024/02/06 06:01:35;;;;;;;5.87;5.27;;;10.10;61.40;;;;;;5099001;28;20216;-70
2024/02/06 06:04:01;;;;;;;6.50;5.40;;;10.10;96.30;;;;;;5090831;28;20186;-69
2024/02/06 06:06:26;;;;;;;9.10;5.33;;;10.10;88.90;;;;;;5090678;28;20215;-70
2024/02/06 06:08:52;;;;;;;7.43;5.50;;;10.10;20.90;;;;;;5091224;28;20192;-70
2024/02/06 06:11:20;;;;;;;11.00;5.63;;;10.10;99.90;;;;;;5072401;28;20214;-71
2024/02/06 06:13:45;;;;;;;9.00;5.47;;;10.10;99.90;;;;;;5092863;28;20281;-70
2024/02/06 06:16:11;;;;;;;8.17;5.77;;;10.10;95.50;;;;;;5100345;22;20704;-89
2024/02/06 06:18:36;;;;;;;8.90;5.97;;;10.20;75.00;;;;;;5096111;28;20173;-90
2024/02/06 06:21:02;;;;;;;12.07;5.93;;;10.10;75.50;;;;;;5078549;28;20177;-93
2024/02/06 06:23:29;;;;;;;8.40;5.77;;;10.20;61.80;;;;;;5095306;28;20363;-90
2024/02/06 06:25:57;;;;;;;9.33;6.30;;;10.20;28.20;;;;;;5094321;28;20193;-88
2024/02/06 06:28:23;;;;;;;8.60;6.40;;;10.20;99.90;;;;;;5094654;28;20616;-89
2024/02/06 06:30:49;;;;;;;10.40;5.87;;;10.20;99.90;;;;;;5076192;28;20185;-89
2024/02/06 06:33:15;;;;;;;10.27;5.83;;;10.20;41.50;;;;;;5075502;28;20205;-89
2024/02/06 06:35:40;;;;;;;6.93;4.83;;;10.20;99.90;;;;;;5074992;28;20246;-88
2024/02/06 06:38:18;;;;;;;10.97;5.80;;;10.20;99.90;;;;;;5078321;28;20283;-92
2024/02/06 06:40:44;;;;;;;8.53;6.07;;;10.20;99.90;;;;;;5078627;28;20181;-87
2024/02/06 06:43:10;;;;;;;11.87;5.37;;;10.20;99.90;;;;;;5094200;28;20232;-89
2024/02/06 06:45:36;;;;;;;7.20;5.20;;;10.20;99.90;;;;;;5095203;28;20226;-90
2024/02/06 06:48:02;;;;;;;7.37;5.50;;;10.20;1.00;;;;;;5094267;28;20174;-89
2024/02/06 06:50:28;;;;;;;9.73;5.60;;;10.20;99.90;;;;;;5098377;28;20344;-90
2024/02/06 06:52:53;;;;;;;6.87;5.77;;;10.20;99.90;;;;;;5098895;28;20687;-90
2024/02/06 06:55:22;;;;;;;10.97;5.83;;;10.30;99.90;;;;;;5098499;28;20264;-89
2024/02/06 06:57:48;;;;;;;8.47;5.50;;;10.30;99.90;;;;;;5099042;28;20181;-90
2024/02/06 07:00:14;;;;;;;8.03;5.33;;;10.30;99.90;;;;;;5098071;28;20696;-88
2024/02/06 07:02:39;;;;;;;8.27;5.47;;;10.30;98.30;;;;;;5098604;28;20637;-89
2024/02/06 07:05:12;;;;;;;6.87;5.70;;;10.30;1.00;;;;;;5098561;28;20281;-91
2024/02/06 07:07:38;;;;;;;10.33;5.53;;;10.30;99.90;;;;;;5080311;28;20189;-90
2024/02/06 07:10:07;;;;;;;10.07;5.27;;;10.30;99.90;;;;;;5078534;28;20291;-88
2024/02/06 07:12:33;;;;;;;9.77;5.57;;;10.30;99.90;;;;;;5062089;28;20205;-89
2024/02/06 07:14:59;;;;;;;5.87;5.27;;;10.30;99.90;;;;;;5078878;28;20182;-89
2024/02/06 07:17:25;;;;;;;9.27;5.30;;;10.30;99.90;;;;;;5104929;28;20182;-88
2024/02/06 07:19:51;;;;;;;8.57;5.30;;;10.30;99.90;;;;;;5102203;28;20222;-89
2024/02/06 07:22:17;;;;;;;7.23;5.53;;;10.30;95.20;;;;;;5109777;28;20197;-89
2024/02/06 07:24:43;;;;;;;11.03;5.63;;;10.30;20.30;;;;;;5082942;28;20214;-90
2024/02/06 07:27:08;;;;;;;8.87;5.53;;;10.30;99.90;;;;;;5099119;28;20187;-89
2024/02/06 07:29:37;;;;;;;8.67;5.60;;;10.40;99.90;;;;;;5100094;28;20256;-89
2024/02/06 07:32:05;;;;;;;10.43;5.47;;;10.40;1.00;;;;;;5099516;28;20676;-90
2024/02/06 07:34:31;;;;;;;7.67;5.80;;;10.40;99.90;;;;;;5099320;28;20227;-89
2024/02/06 07:36:57;;;;;;;13.63;5.40;;;10.40;54.50;;;;;;5098179;28;20185;-89
2024/02/06 07:39:23;;;;;;;10.10;5.40;;;10.50;1.00;;;;;;5098228;28;20245;-89
2024/02/06 07:41:49;;;;;;;8.73;6.27;;;10.50;51.40;;;;;;5098818;28;20577;-89
2024/02/06 07:44:15;;;;;;;7.33;5.53;;;10.50;99.90;;;;;;5098534;28;20311;-90
2024/02/06 07:46:43;;;;;;;8.30;5.00;;;10.50;1.00;;;;;;5099217;28;20178;-90
2024/02/06 07:49:09;;;;;;;14.33;6.83;;;10.50;99.90;;;;;;5097324;28;20165;-89
2024/02/06 07:51:34;;;;;;;9.73;5.30;;;10.50;1.00;;;;;;5098295;28;20184;-89
2024/02/06 07:54:00;;;;;;;14.73;5.50;;;10.50;99.90;;;;;;5099648;28;20173;-90
2024/02/06 07:56:30;;;;;;;8.53;5.63;;;10.60;6.30;;;;;;5100533;28;20542;-90
2024/02/06 07:58:58;;;;;;;9.63;5.83;;;10.60;1.00;;;;;;5100398;28;20199;-91
2024/02/06 08:01:24;;;;;;;10.40;5.20;;;10.60;49.40;;;;;;5099883;28;20199;-90
2024/02/06 08:03:50;;;;;;;9.03;6.90;;;10.70;99.90;;;;;;5099125;28;20197;-91
2024/02/06 08:06:20;;;;;;;8.40;5.00;;;10.70;1.00;;;;;;5081766;28;20184;-90
2024/02/06 08:08:46;;;;;;;9.13;5.37;;;10.70;1.00;;;;;;5088012;28;20181;-90
2024/02/06 08:11:11;;;;;;;12.80;5.80;;;10.80;1.00;;;;;;5118531;28;20199;-90
2024/02/06 08:13:41;;;;;;;6.63;5.60;;;10.80;1.00;;;;;;5110234;28;20205;-91
2024/02/06 08:16:07;;;;;;;11.37;5.70;;;10.90;1.00;;;;;;5101034;28;20204;-92
2024/02/06 08:18:33;;;;;;;7.10;4.73;;;10.90;1.00;;;;;;5100963;28;20661;-88
2024/02/06 08:20:58;;;;;;;10.40;5.03;;;10.90;1.00;;;;;;5099203;28;20184;-89
2024/02/06 08:23:24;;;;;;;7.33;5.00;;;10.90;1.00;;;;;;5098875;28;20201;-90
2024/02/06 08:25:51;;;;;;;9.67;5.50;;;10.90;1.00;;;;;;5097309;28;20245;-89
2024/02/06 08:28:17;;;;;;;9.30;5.97;;;10.90;1.00;;;;;;5098862;28;20249;-91
2024/02/06 08:30:47;;;;;;;10.53;5.33;;;11.00;99.90;;;;;;5098231;28;20826;-89
2024/02/06 08:33:14;;;;;;;7.87;4.77;;;11.00;99.90;;;;;;5097957;28;20194;-88
2024/02/06 08:35:39;;;;;;;10.70;5.67;;;11.00;99.90;;;;;;5098515;28;20184;-89
2024/02/06 08:38:07;;;;;;;6.53;4.90;;;11.00;99.90;;;;;;5083802;28;20182;-89
2024/02/06 08:40:38;;;;;;;12.03;4.97;;;11.00;99.90;;;;;;5092926;28;20617;-90
2024/02/06 08:43:04;;;;;;;10.47;5.43;;;11.00;99.90;;;;;;5082169;28;20236;-89
2024/02/06 08:45:30;;;;;;;7.00;4.90;;;11.00;99.90;;;;;;5098286;28;20169;-88
2024/02/06 08:47:55;;;;;;;9.80;5.70;;;11.00;1.00;;;;;;5097923;28;20204;-90
2024/02/06 08:50:21;;;;;;;9.60;6.00;;;11.00;1.00;;;;;;5098637;28;20192;-90
2024/02/06 08:52:47;;;;;;;12.00;5.67;;;11.00;1.00;;;;;;5098066;28;20197;-89
2024/02/06 08:55:13;;;;;;;6.87;4.70;;;11.00;1.00;;;;;;5099708;28;20173;-89
2024/02/06 08:57:40;;;;;;;7.83;5.30;;;11.00;99.90;;;;;;5081154;28;20207;-88
2024/02/06 09:00:11;;;;;;;8.73;5.57;;;11.00;99.90;;;;;;5097277;28;20211;-91
2024/02/06 09:02:37;;;;;;;10.03;5.33;;;11.00;1.00;;;;;;5063540;28;20210;-86
2024/02/06 09:05:04;;;;;;;6.50;5.17;;;11.10;99.90;;;;;;5097592;28;20251;-88
2024/02/06 09:07:29;;;;;;;14.77;5.90;;;11.10;99.90;;;;;;5097871;28;20227;-90
2024/02/06 09:09:56;;;;;;;6.93;5.20;;;11.10;99.90;;;;;;5098399;28;20691;-88
2024/02/06 09:12:23;;;;;;;9.50;5.33;;;11.10;1.00;;;;;;5096471;28;20221;-90
2024/02/06 09:14:50;;;;;;;12.13;5.63;;;11.00;1.00;;;;;;5097939;28;20649;-90
2024/02/06 09:17:16;;;;;;;8.17;5.47;;;11.00;1.00;;;;;;5097512;28;20596;-91
2024/02/06 09:19:46;;;;;;;10.53;6.27;;;11.00;1.00;;;;;;5080687;28;20239;-92
2024/02/06 09:22:19;;;;;;;15.87;6.00;;;11.00;1.00;;;;;;5099988;28;20208;-91
2024/02/06 09:24:49;;;;;;;6.23;5.47;;;11.10;1.00;;;;;;5098557;28;20185;-92
2024/02/06 09:27:18;;;;;;;5.60;5.00;;;11.10;1.00;;;;;;5099289;28;20177;-91
2024/02/06 09:29:47;;;;;;;8.47;5.20;;;11.10;1.00;;;;;;5080446;28;20558;-91
2024/02/06 09:32:12;;;;;;;7.77;5.10;;;11.10;1.00;;;;;;5097978;28;20189;-87
2024/02/06 09:34:38;;;;;;;8.67;5.73;;;11.10;1.00;;;;;;5098570;28;20196;-91
2024/02/06 09:37:08;;;;;;;9.33;5.60;;;11.10;16.10;;;;;;5098437;28;20188;-92
2024/02/06 09:42:12;;;;;;;8.70;5.20;;;11.10;1.00;;;;;;5089610;28;20223;-70
2024/02/06 09:44:37;;;;;;;14.27;5.70;;;11.10;93.40;;;;;;5090769;28;20713;-69
2024/02/06 09:47:03;;;;;;;6.53;4.77;;;11.10;99.90;;;;;;5091409;28;20252;-69
2024/02/06 09:49:29;;;;;;;6.63;5.23;;;11.10;1.00;;;;;;5090877;28;20661;-70
2024/02/06 09:51:55;;;;;;;11.43;5.77;;;11.10;1.00;;;;;;5090326;28;20648;-70
2024/02/06 09:54:24;;;;;;;10.73;6.83;;;11.10;99.90;;;;;;5100233;22;20646;-89
2024/02/06 09:56:55;;;;;;;12.87;6.03;;;11.00;99.90;;;;;;5097464;28;20264;-88
2024/02/06 09:59:23;;;;;;;9.53;5.77;;;11.10;26.50;;;;;;5098337;28;20177;-88
2024/02/06 10:01:51;;;;;;;7.93;6.03;;;11.10;99.90;;;;;;5086627;28;20189;-89
2024/02/06 10:04:31;;;;;;;8.27;5.50;;;11.10;1.00;;;;;;5099588;28;20177;-90
2024/02/06 10:06:58;;;;;;;9.53;6.17;;;11.10;1.00;;;;;;5101489;28;20173;-90
2024/02/06 10:09:26;;;;;;;10.87;5.73;;;11.10;1.00;;;;;;5099988;28;20173;-89
2024/02/06 10:11:54;;;;;;;11.27;5.80;;;11.10;1.00;;;;;;5098854;28;20197;-90
2024/02/06 10:14:20;;;;;;;7.73;5.93;;;11.00;1.00;;;;;;5092248;28;20178;-89
2024/02/06 10:16:46;;;;;;;7.67;6.83;;;11.10;99.90;;;;;;5082498;28;20177;-88
2024/02/06 10:19:13;;;;;;;11.70;6.90;;;11.10;1.00;;;;;;5096408;28;20621;-89
2024/02/06 10:21:40;;;;;;;8.33;6.03;;;11.10;1.00;;;;;;5095482;28;20256;-87
2024/02/06 10:24:07;;;;;;;10.77;6.03;;;11.20;1.00;;;;;;5099273;28;20173;-89
2024/02/06 10:26:34;;;;;;;8.93;6.17;;;11.20;1.00;;;;;;5101207;28;20267;-89
2024/02/06 10:29:08;;;;;;;8.73;6.43;;;11.20;1.00;;;;;;5102169;28;20732;-89
2024/02/06 10:31:34;;;;;;;13.17;5.93;;;11.30;1.00;;;;;;5101858;28;20173;-88
2024/02/06 10:34:12;;;;;;;6.83;5.80;;;11.20;1.00;;;;;;5098748;28;20173;-89
2024/02/06 10:36:39;;;;;;;7.53;6.57;;;11.30;99.90;;;;;;5105374;28;20550;-90
2024/02/06 10:39:06;;;;;;;8.43;6.20;;;11.30;1.00;;;;;;5101517;28;20174;-89
2024/02/06 10:41:33;;;;;;;9.30;6.17;;;11.30;1.00;;;;;;5101262;28;20173;-89
2024/02/06 10:44:09;;;;;;;7.63;6.63;;;11.30;99.90;;;;;;5102986;28;20634;-90
2024/02/06 10:46:35;;;;;;;8.67;5.97;;;11.40;1.00;;;;;;5107604;28;20221;-90
2024/02/06 10:49:04;;;;;;;10.37;5.93;;;11.40;26.10;;;;;;5105812;28;20298;-89
2024/02/06 10:51:34;;;;;;;10.93;5.67;;;11.40;1.00;;;;;;5103405;28;20386;-90
2024/02/06 10:54:01;;;;;;;10.13;5.83;;;11.40;1.00;;;;;;5105857;28;20177;-90
2024/02/06 10:56:32;;;;;;;11.97;6.67;;;11.40;1.00;;;;;;5102172;28;20193;-90
2024/02/06 10:59:01;;;;;;;12.37;6.93;;;11.30;1.00;;;;;;5103159;28;20235;-89
2024/02/06 11:01:39;;;;;;;8.97;6.57;;;11.30;99.90;;;;;;5102486;28;20181;-89
2024/02/06 11:04:11;;;;;;;9.13;6.67;;;11.30;99.90;;;;;;5099362;28;20242;-90
2024/02/06 11:06:45;;;;;;;14.73;6.60;;;11.30;1.00;;;;;;5074823;28;20182;-88
2024/02/06 11:09:15;;;;;;;13.40;7.40;;;11.30;1.00;;;;;;5096422;28;20187;-89
2024/02/06 11:11:41;;;;;;;10.93;6.23;;;11.50;99.90;;;;;;5080471;28;20205;-88
2024/02/06 11:14:13;;;;;;;14.07;7.17;;;11.60;99.90;;;;;;5095572;28;20174;-88
2024/02/06 11:16:49;;;;;;;8.73;6.43;;;11.70;1.00;;;;;;5079029;28;20228;-87
2024/02/06 11:19:39;;;;;;;11.57;7.23;;;11.70;99.90;;;;;;5092433;28;20176;-86
2024/02/06 11:22:23;;;;;;;10.50;6.23;;;11.70;99.90;;;;;;5110470;22;20231;-71
2024/02/06 11:24:51;;;;;;;12.27;6.53;;;11.70;1.00;;;;;;5081668;28;20236;-70
2024/02/06 11:27:17;;;;;;;8.20;6.90;;;11.70;1.00;;;;;;5083032;28;20586;-71
2024/02/06 11:29:44;;;;;;;8.07;5.77;;;11.70;1.00;;;;;;5094259;28;20165;-71
2024/02/06 11:32:10;;;;;;;8.80;6.37;;;11.70;99.90;;;;;;5094339;28;20238;-71
2024/02/06 11:34:52;;;;;;;12.10;6.40;;;11.70;99.90;;;;;;5094477;28;20185;-71
2024/02/06 11:37:28;;;;;;;12.27;6.20;;;11.80;1.00;;;;;;5096347;28;20173;-70
2024/02/06 11:40:06;;;;;;;6.57;5.40;;;11.80;1.00;;;;;;5093705;28;20668;-70
2024/02/06 11:42:36;;;;;;;10.90;7.77;;;11.90;5.70;;;;;;5085222;28;20797;-71
2024/02/06 11:45:12;;;;;;;10.03;6.87;;;11.90;1.00;;;;;;5090533;28;20622;-71
2024/02/06 11:47:49;;;;;;;12.13;6.60;;;11.90;99.90;;;;;;5080908;28;20259;-70
2024/02/06 11:50:14;;;;;;;12.27;6.77;;;12.00;99.90;;;;;;5075329;28;20224;-68
2024/02/06 11:52:40;;;;;;;12.20;7.03;;;12.10;30.50;;;;;;5089025;28;20654;-70
2024/02/06 11:55:08;;;;;;;10.70;5.77;;;12.10;1.00;;;;;;5092680;28;20201;-71
2024/02/06 11:57:33;;;;;;;8.63;5.67;;;12.10;1.00;;;;;;5094014;28;20207;-71
2024/02/06 11:59:59;;;;;;;12.97;6.53;;;12.20;19.30;;;;;;5093680;28;20177;-70
2024/02/06 12:02:25;;;;;;;14.53;6.57;;;12.10;1.00;;;;;;5094182;28;20288;-69
2024/02/06 12:04:50;;;;;;;10.57;5.70;;;12.10;1.00;;;;;;5085789;28;20545;-70
2024/02/06 12:07:17;;;;;;;11.83;7.30;;;12.10;35.20;;;;;;5073547;28;20182;-70
2024/02/06 12:09:43;;;;;;;9.13;5.93;;;12.10;11.90;;;;;;5073128;28;20232;-71
2024/02/06 12:12:10;;;;;;;17.47;15.90;;;12.10;28.80;;;;;;5073760;28;20527;-70
2024/02/06 12:14:36;;;;;;;8.83;6.30;;;12.00;1.00;;;;;;5084335;28;20255;-70
2024/02/06 12:17:02;;;;;;;9.70;5.70;;;12.10;27.40;;;;;;5089999;28;20185;-70
2024/02/06 12:19:29;;;;;;;8.83;5.93;;;12.10;1.00;;;;;;5092829;28;20185;-71
2024/02/06 12:22:00;;;;;;;8.73;6.47;;;12.20;1.00;;;;;;5093726;28;20196;-70
2024/02/06 12:24:25;;;;;;;11.93;6.50;;;12.10;19.90;;;;;;5093835;28;20200;-72
2024/02/06 12:27:05;;;;;;;13.93;6.70;;;12.10;1.00;;;;;;5093541;28;20642;-70
2024/02/06 12:29:43;;;;;;;10.30;5.60;;;12.00;1.00;;;;;;5092952;28;20352;-71
2024/02/06 12:32:09;;;;;;;10.00;5.80;;;12.00;1.00;;;;;;5093254;28;20193;-70
2024/02/06 12:34:35;;;;;;;11.27;6.10;;;12.10;1.00;;;;;;5093400;28;20201;-71
2024/02/06 12:37:02;;;;;;;16.07;6.80;;;12.20;99.90;;;;;;5092874;28;20265;-71
2024/02/06 12:39:30;;;;;;;13.33;6.20;;;12.20;99.90;;;;;;5091793;28;20177;-72
2024/02/06 12:42:06;;;;;;;8.97;5.60;;;12.30;99.90;;;;;;5092451;28;20174;-71
2024/02/06 12:44:33;;;;;;;6.10;5.43;;;12.40;99.90;;;;;;5092835;28;20180;-71
2024/02/06 12:47:03;;;;;;;7.80;5.40;;;12.60;99.90;;;;;;5091956;28;20173;-71
2024/02/06 12:49:28;;;;;;;7.37;5.47;;;12.70;99.90;;;;;;5093272;28;20262;-70
2024/02/06 12:51:56;;;;;;;12.30;6.40;;;12.80;1.00;;;;;;5092996;28;20174;-71
2024/02/06 12:54:23;;;;;;;8.07;5.60;;;12.80;1.00;;;;;;5092928;28;20239;-70